Time;durP1;ratioP1;P1;durP2;ratioP2;P2;SDS_P1;SDS_P2;PMS_P1;PMS_P2;Temp;Humidity;BMP_temperature;BMP_pressure;BME280_temperature;BME280_humidity;BME280_pressure;Samples;Min_cycle;Max_cycle;Signal;HPM_P1;HPM_P2
2023/06/04 00:00:04;;;;;;;1.45;1.35;;;13.80;57.40;;;;;;2091944;28;20054;-73
2023/06/04 00:01:04;;;;;;;1.90;1.38;;;13.80;57.30;;;;;;2093226;28;20021;-73
2023/06/04 00:02:05;;;;;;;3.97;1.92;;;13.80;57.30;;;;;;2095238;28;20020;-73
2023/06/04 00:03:06;;;;;;;1.30;1.20;;;13.80;57.20;;;;;;2093293;28;20078;-73
2023/06/04 00:04:06;;;;;;;2.33;1.50;;;13.80;57.30;;;;;;2093722;28;20021;-73
2023/06/04 00:05:07;;;;;;;2.63;1.40;;;13.70;57.10;;;;;;2100968;28;20023;-73
2023/06/04 00:06:08;;;;;;;3.60;1.35;;;13.70;57.20;;;;;;2100866;28;20024;-73
2023/06/04 00:07:08;;;;;;;1.95;1.50;;;13.70;57.60;;;;;;2098207;28;20056;-73
2023/06/04 00:08:09;;;;;;;1.48;1.38;;;13.70;57.60;;;;;;2100638;28;20024;-73
2023/06/04 00:09:10;;;;;;;1.52;1.30;;;13.70;57.60;;;;;;2093580;28;20021;-73
2023/06/04 00:10:10;;;;;;;1.52;1.30;;;13.70;57.40;;;;;;2092658;28;20071;-73
2023/06/04 00:11:11;;;;;;;1.77;1.40;;;13.70;57.40;;;;;;2092234;28;20016;-72
2023/06/04 00:12:11;;;;;;;2.05;1.40;;;13.70;57.30;;;;;;2094010;28;20047;-73
2023/06/04 00:13:12;;;;;;;4.90;1.77;;;13.70;57.20;;;;;;2092661;28;20021;-73
2023/06/04 00:14:16;;;;;;;2.40;1.30;;;13.70;57.10;;;;;;2093263;28;20017;-73
2023/06/04 00:15:16;;;;;;;4.00;1.40;;;13.70;57.40;;;;;;2093587;28;20020;-73
2023/06/04 00:16:17;;;;;;;2.00;1.38;;;13.70;57.60;;;;;;2092651;28;20031;-73
2023/06/04 00:17:17;;;;;;;2.75;1.20;;;13.70;57.70;;;;;;2092599;28;20057;-73
2023/06/04 00:18:18;;;;;;;2.63;1.20;;;13.60;57.50;;;;;;2095281;28;20396;-73
2023/06/04 00:19:18;;;;;;;1.73;1.30;;;13.60;57.70;;;;;;2095563;28;20131;-73
2023/06/04 00:20:19;;;;;;;2.03;1.50;;;13.60;57.70;;;;;;2095765;28;20021;-73
2023/06/04 00:21:20;;;;;;;2.67;1.60;;;13.60;58.40;;;;;;2092608;28;20028;-73
2023/06/04 00:22:20;;;;;;;3.05;1.48;;;13.60;57.80;;;;;;2091244;28;20067;-73
2023/06/04 00:23:21;;;;;;;1.85;1.38;;;13.60;58.00;;;;;;2094291;28;20048;-73
2023/06/04 00:24:21;;;;;;;2.85;1.67;;;13.60;57.90;;;;;;2095885;28;20459;-73
2023/06/04 00:25:22;;;;;;;2.72;1.48;;;13.60;57.80;;;;;;2092795;28;20021;-73
2023/06/04 00:26:23;;;;;;;3.15;1.25;;;13.60;58.10;;;;;;2093318;28;20021;-73
2023/06/04 00:27:23;;;;;;;1.98;1.33;;;13.60;58.60;;;;;;2091260;28;20035;-73
2023/06/04 00:28:24;;;;;;;1.80;1.40;;;13.60;57.90;;;;;;2094639;28;20388;-73
2023/06/04 00:29:25;;;;;;;1.23;1.15;;;13.60;58.00;;;;;;2092101;28;20020;-73
2023/06/04 00:30:26;;;;;;;1.50;1.40;;;13.60;58.30;;;;;;2091394;28;20021;-72
2023/06/04 00:31:26;;;;;;;3.42;1.38;;;13.60;58.00;;;;;;2094410;28;20484;-73
2023/06/04 00:32:27;;;;;;;1.42;1.17;;;13.60;58.20;;;;;;2094325;28;20029;-73
2023/06/04 00:33:27;;;;;;;1.50;1.40;;;13.50;58.20;;;;;;2090597;28;20028;-73
2023/06/04 00:34:28;;;;;;;2.55;1.45;;;13.60;58.80;;;;;;2092082;28;20070;-73
2023/06/04 00:35:29;;;;;;;2.22;1.58;;;13.50;58.50;;;;;;2093510;28;20025;-73
2023/06/04 00:36:29;;;;;;;2.22;1.23;;;13.50;58.60;;;;;;2090962;28;20594;-73
2023/06/04 00:37:30;;;;;;;2.30;1.55;;;13.50;58.50;;;;;;2094649;28;20025;-73
2023/06/04 00:38:31;;;;;;;1.92;1.70;;;13.50;58.60;;;;;;2095756;28;20017;-73
2023/06/04 00:39:32;;;;;;;4.10;1.50;;;13.50;58.60;;;;;;2094098;28;20028;-73
2023/06/04 00:40:32;;;;;;;1.67;1.38;;;13.50;58.60;;;;;;2094944;28;20035;-73
2023/06/04 00:41:33;;;;;;;2.35;1.70;;;13.50;58.60;;;;;;2092226;28;20074;-73
2023/06/04 00:42:33;;;;;;;3.60;2.25;;;13.50;58.90;;;;;;2091554;28;20134;-73
2023/06/04 00:43:35;;;;;;;3.67;1.60;;;13.50;59.00;;;;;;2093904;28;20048;-72
2023/06/04 00:44:36;;;;;;;2.00;1.50;;;13.50;59.30;;;;;;2092765;28;20028;-73
2023/06/04 00:45:36;;;;;;;3.55;1.60;;;13.50;59.40;;;;;;2093350;28;20020;-73
2023/06/04 00:46:37;;;;;;;1.98;1.50;;;13.50;59.30;;;;;;2092571;28;20024;-73
2023/06/04 00:47:40;;;;;;;1.42;1.33;;;13.50;59.40;;;;;;2094277;28;20027;-73
2023/06/04 00:48:43;;;;;;;3.20;1.90;;;13.50;59.30;;;;;;2092162;28;20477;-73
2023/06/04 00:49:43;;;;;;;2.20;1.70;;;13.50;59.60;;;;;;2093279;28;20040;-73
2023/06/04 00:50:44;;;;;;;1.67;1.58;;;13.50;59.90;;;;;;2092808;28;20053;-73
2023/06/04 00:51:45;;;;;;;3.45;1.85;;;13.50;60.00;;;;;;2093364;28;20528;-73
2023/06/04 00:52:46;;;;;;;2.67;1.58;;;13.50;60.20;;;;;;2092361;28;20067;-73
2023/06/04 00:53:48;;;;;;;1.88;1.77;;;13.50;60.30;;;;;;2093652;28;20028;-73
2023/06/04 00:54:49;;;;;;;1.85;1.65;;;13.50;60.60;;;;;;2092779;28;20021;-73
2023/06/04 00:55:50;;;;;;;3.00;1.52;;;13.50;61.10;;;;;;2093147;28;20033;-73
2023/06/04 00:56:50;;;;;;;1.95;1.75;;;13.50;61.10;;;;;;2092006;28;20587;-73
2023/06/04 00:57:51;;;;;;;2.50;1.67;;;13.50;60.80;;;;;;2092706;28;20028;-73
2023/06/04 00:58:53;;;;;;;1.83;1.60;;;13.50;61.20;;;;;;2093107;28;20473;-73
2023/06/04 00:59:54;;;;;;;3.60;1.85;;;13.50;61.40;;;;;;2090960;28;20074;-73
2023/06/04 01:00:58;;;;;;;2.58;1.60;;;13.50;61.50;;;;;;2090921;28;20118;-72
2023/06/04 01:02:12;;;;;;;3.50;1.60;;;13.50;61.90;;;;;;2095174;28;20079;-72
2023/06/04 01:03:22;;;;;;;1.75;1.65;;;13.50;61.50;;;;;;2094732;28;20028;-72
2023/06/04 01:04:32;;;;;;;6.53;1.95;;;13.50;62.10;;;;;;2093224;28;20388;-72
2023/06/04 01:05:40;;;;;;;1.50;1.40;;;13.40;62.60;;;;;;2092884;28;20035;-73
2023/06/04 01:06:47;;;;;;;2.17;1.50;;;13.40;62.10;;;;;;2090011;28;20047;-72
2023/06/04 01:07:48;;;;;;;1.90;1.48;;;13.50;62.00;;;;;;2092909;28;20025;-73
2023/06/04 01:08:52;;;;;;;2.13;1.50;;;13.50;62.60;;;;;;2091750;28;20083;-73
2023/06/04 01:09:53;;;;;;;5.68;1.90;;;13.50;63.30;;;;;;2091459;28;20044;-73
2023/06/04 01:10:55;;;;;;;3.35;1.58;;;13.50;63.50;;;;;;2092210;28;20037;-73
2023/06/04 01:11:58;;;;;;;2.25;1.90;;;13.50;63.80;;;;;;2092208;28;20065;-73
2023/06/04 01:13:01;;;;;;;3.92;1.80;;;13.40;63.70;;;;;;2092453;28;20153;-73
2023/06/04 01:14:03;;;;;;;2.22;1.73;;;13.40;64.30;;;;;;2092320;28;20127;-73
2023/06/04 01:15:04;;;;;;;1.45;1.35;;;13.40;64.40;;;;;;2092395;28;20028;-73
2023/06/04 01:16:05;;;;;;;4.97;1.70;;;13.40;64.60;;;;;;2096455;28;20518;-73
2023/06/04 01:17:19;;;;;;;1.98;1.55;;;13.40;64.90;;;;;;2094732;28;20476;-72
2023/06/04 01:18:29;;;;;;;1.83;1.60;;;13.40;65.60;;;;;;2094146;28;20211;-72
2023/06/04 01:20:04;;;;;;;1.73;1.45;;;13.40;66.40;;;;;;2093844;28;20028;-73
2023/06/04 01:21:08;;;;;;;2.40;1.40;;;13.40;66.70;;;;;;2092535;28;20123;-73
2023/06/04 01:22:24;;;;;;;3.08;1.73;;;13.40;66.00;;;;;;2095935;28;20024;-73
2023/06/04 01:23:42;;;;;;;3.70;1.70;;;13.40;66.40;;;;;;2096417;28;20458;-73
2023/06/04 01:24:51;;;;;;;2.25;2.05;;;13.40;66.80;;;;;;2091867;28;20025;-73
2023/06/04 01:25:52;;;;;;;3.63;1.98;;;13.30;66.50;;;;;;2092752;28;20492;-73
2023/06/04 01:26:55;;;;;;;2.78;1.75;;;13.30;66.90;;;;;;2090507;28;20044;-73
2023/06/04 01:27:57;;;;;;;3.47;1.75;;;13.30;67.30;;;;;;2093129;28;20029;-72
2023/06/04 01:28:59;;;;;;;5.57;1.88;;;13.30;67.70;;;;;;2095602;28;20063;-73
2023/06/04 01:30:00;;;;;;;4.97;1.92;;;13.30;68.00;;;;;;2091126;28;20028;-73
2023/06/04 01:31:02;;;;;;;1.58;1.45;;;13.30;67.90;;;;;;2093132;28;20027;-72
2023/06/04 01:32:04;;;;;;;6.35;1.80;;;13.30;68.30;;;;;;2091853;28;20067;-72
2023/06/04 01:33:06;;;;;;;2.75;1.80;;;13.30;68.60;;;;;;2092046;28;20114;-72
2023/06/04 01:34:07;;;;;;;1.92;1.70;;;13.30;69.00;;;;;;2092356;28;20074;-73
2023/06/04 01:35:12;;;;;;;5.05;1.60;;;13.30;69.20;;;;;;2092187;28;20136;-73
2023/06/04 01:36:12;;;;;;;2.58;1.63;;;13.30;69.30;;;;;;2093107;28;20028;-73
2023/06/04 01:37:13;;;;;;;3.50;1.70;;;13.30;69.30;;;;;;2092447;28;20032;-72
2023/06/04 01:38:14;;;;;;;1.77;1.40;;;13.30;69.60;;;;;;2093911;28;20670;-72
2023/06/04 01:39:15;;;;;;;3.53;1.85;;;13.30;70.20;;;;;;2092218;28;20108;-73
2023/06/04 01:40:17;;;;;;;2.60;1.65;;;13.30;70.40;;;;;;2092241;28;20090;-75
2023/06/04 01:41:17;;;;;;;2.45;1.58;;;13.30;70.60;;;;;;2092209;28;20021;-72
2023/06/04 01:42:18;;;;;;;2.10;1.90;;;13.30;70.70;;;;;;2095191;28;20025;-73
2023/06/04 01:43:19;;;;;;;1.88;1.45;;;13.30;70.80;;;;;;2090027;28;20021;-73
2023/06/04 01:44:19;;;;;;;1.58;1.45;;;13.30;71.00;;;;;;2088077;28;20507;-72
2023/06/04 01:45:21;;;;;;;2.03;1.60;;;13.30;71.00;;;;;;2087048;28;20014;-72
2023/06/04 01:46:22;;;;;;;2.53;1.75;;;13.30;71.50;;;;;;2091913;28;20536;-72
2023/06/04 01:47:23;;;;;;;2.67;1.80;;;13.30;71.80;;;;;;2091827;28;20043;-73
2023/06/04 01:48:23;;;;;;;5.95;1.80;;;13.30;72.30;;;;;;2093393;28;20539;-72
2023/06/04 01:49:24;;;;;;;3.35;1.88;;;13.30;72.60;;;;;;2093460;28;20484;-73
2023/06/04 01:50:24;;;;;;;2.25;1.85;;;13.30;72.90;;;;;;2092029;28;20033;-72
2023/06/04 01:51:25;;;;;;;2.80;1.95;;;13.30;73.10;;;;;;2087138;28;20024;-73
2023/06/04 01:52:26;;;;;;;3.85;2.00;;;13.30;73.30;;;;;;2087667;28;20013;-72
2023/06/04 01:53:27;;;;;;;3.40;1.73;;;13.20;73.50;;;;;;2095528;28;20025;-73
2023/06/04 01:54:29;;;;;;;4.28;1.60;;;13.30;73.90;;;;;;2091250;28;20020;-73
2023/06/04 01:55:33;;;;;;;2.42;1.70;;;13.30;74.00;;;;;;2090620;28;20044;-73
2023/06/04 01:56:33;;;;;;;4.05;1.90;;;13.20;74.00;;;;;;2091094;28;20067;-73
2023/06/04 01:57:36;;;;;;;2.65;1.80;;;13.20;74.50;;;;;;2093924;28;20024;-72
2023/06/04 01:58:36;;;;;;;3.25;2.03;;;13.20;74.30;;;;;;2093360;28;20024;-73
2023/06/04 01:59:38;;;;;;;7.47;2.25;;;13.20;74.30;;;;;;2094367;28;20035;-73
2023/06/04 02:00:39;;;;;;;2.67;1.70;;;13.20;73.80;;;;;;2084850;28;20033;-73
2023/06/04 02:01:40;;;;;;;2.55;1.70;;;13.20;74.60;;;;;;2091680;28;20025;-73
2023/06/04 02:02:42;;;;;;;2.25;1.80;;;13.20;75.10;;;;;;2091102;28;20020;-73
2023/06/04 02:03:43;;;;;;;3.85;1.55;;;13.20;75.70;;;;;;2092177;28;20075;-72
2023/06/04 02:04:44;;;;;;;3.55;1.52;;;13.20;75.50;;;;;;2090793;28;20029;-73
2023/06/04 02:05:46;;;;;;;3.13;1.85;;;13.20;75.80;;;;;;2091835;28;20044;-72
2023/06/04 02:06:48;;;;;;;3.45;2.33;;;13.20;76.10;;;;;;2093379;28;20045;-72
2023/06/04 02:07:49;;;;;;;1.75;1.50;;;13.20;76.50;;;;;;2093432;28;20560;-73
2023/06/04 02:08:49;;;;;;;2.65;1.65;;;13.20;76.80;;;;;;2094897;28;20052;-73
2023/06/04 02:09:50;;;;;;;2.90;1.70;;;13.20;76.20;;;;;;2095790;28;20518;-73
2023/06/04 02:10:51;;;;;;;2.42;1.98;;;13.20;76.10;;;;;;2091220;28;20056;-73
2023/06/04 02:11:52;;;;;;;2.42;1.77;;;13.20;76.90;;;;;;2091682;28;20032;-73
2023/06/04 02:12:58;;;;;;;3.92;1.80;;;13.20;77.70;;;;;;2091355;28;20024;-73
2023/06/04 02:13:58;;;;;;;3.30;1.77;;;13.20;79.10;;;;;;2082684;28;20029;-71
2023/06/04 02:14:59;;;;;;;5.60;1.83;;;13.20;78.70;;;;;;2094645;28;20020;-73
2023/06/04 02:15:59;;;;;;;4.45;1.80;;;13.10;79.00;;;;;;2093454;28;20032;-73
2023/06/04 02:17:00;;;;;;;2.08;1.75;;;13.10;79.50;;;;;;2085139;28;20044;-73
2023/06/04 02:18:15;;;;;;;2.92;1.50;;;13.10;80.00;;;;;;2094310;28;20028;-72
2023/06/04 02:19:18;;;;;;;3.17;1.63;;;13.20;81.50;;;;;;2094627;28;20035;-72
2023/06/04 02:20:18;;;;;;;2.38;1.80;;;13.10;80.70;;;;;;2091870;28;20024;-73
2023/06/04 02:21:19;;;;;;;2.33;1.75;;;13.10;81.00;;;;;;2091234;28;20053;-72
2023/06/04 02:22:20;;;;;;;2.53;1.60;;;13.10;81.30;;;;;;2091912;28;20049;-73
2023/06/04 02:23:20;;;;;;;2.55;1.90;;;13.10;81.60;;;;;;2092257;28;20020;-73
2023/06/04 02:24:21;;;;;;;3.28;1.85;;;13.10;82.00;;;;;;2089500;28;20016;-72
2023/06/04 02:25:23;;;;;;;3.05;2.05;;;13.10;82.30;;;;;;2091525;28;20025;-72
2023/06/04 02:26:24;;;;;;;4.05;1.67;;;13.10;82.60;;;;;;2091323;28;20009;-73
2023/06/04 02:27:25;;;;;;;4.13;1.98;;;13.10;83.00;;;;;;2092350;28;20032;-73
2023/06/04 02:28:26;;;;;;;2.67;1.75;;;13.10;83.60;;;;;;2093065;28;20028;-72
2023/06/04 02:29:26;;;;;;;2.75;2.08;;;13.10;83.40;;;;;;2092910;28;20248;-73
2023/06/04 02:30:27;;;;;;;2.20;1.30;;;13.10;83.40;;;;;;2085128;28;20083;-72
2023/06/04 02:31:27;;;;;;;2.97;1.60;;;13.00;82.40;;;;;;2091409;28;20112;-72
2023/06/04 02:32:28;;;;;;;3.60;1.85;;;13.10;82.70;;;;;;2090412;28;20028;-72
2023/06/04 02:33:29;;;;;;;3.95;1.70;;;13.10;83.70;;;;;;2093147;28;20059;-73
2023/06/04 02:34:30;;;;;;;2.78;1.52;;;13.10;83.40;;;;;;2091621;28;20023;-72
2023/06/04 02:35:31;;;;;;;2.67;1.42;;;13.10;82.00;;;;;;2090608;28;20024;-72
2023/06/04 02:36:31;;;;;;;2.28;1.50;;;13.10;81.80;;;;;;2093223;28;20024;-72
2023/06/04 02:37:32;;;;;;;3.15;2.00;;;13.10;81.90;;;;;;2086399;28;20048;-72
2023/06/04 02:38:33;;;;;;;3.75;1.80;;;13.00;81.30;;;;;;2086358;28;20112;-73
2023/06/04 02:39:33;;;;;;;2.50;1.98;;;13.00;81.30;;;;;;2095616;28;20403;-73
2023/06/04 02:40:34;;;;;;;2.20;1.40;;;13.00;81.70;;;;;;2093104;28;20025;-73
2023/06/04 02:41:35;;;;;;;1.70;1.60;;;13.00;81.30;;;;;;2088721;28;20041;-73
2023/06/04 02:42:35;;;;;;;1.63;1.38;;;13.00;80.40;;;;;;2090524;28;20067;-73
2023/06/04 02:43:37;;;;;;;1.90;1.38;;;13.00;80.00;;;;;;2091866;28;20100;-73
2023/06/04 02:44:37;;;;;;;4.53;1.83;;;13.00;81.30;;;;;;2093495;28;20532;-73
2023/06/04 02:45:38;;;;;;;2.47;1.67;;;13.00;81.10;;;;;;2093011;28;20353;-73
2023/06/04 02:46:38;;;;;;;1.40;1.27;;;13.00;80.60;;;;;;2092489;28;20028;-72
2023/06/04 02:47:39;;;;;;;2.15;1.70;;;13.00;79.70;;;;;;2091591;28;20041;-73
2023/06/04 02:48:40;;;;;;;2.55;1.33;;;13.00;80.10;;;;;;2093684;28;20020;-73
2023/06/04 02:49:40;;;;;;;3.78;1.60;;;13.00;79.80;;;;;;2091683;28;20381;-73
2023/06/04 02:50:42;;;;;;;1.83;1.50;;;13.00;80.10;;;;;;2091606;28;20056;-72
2023/06/04 02:51:43;;;;;;;2.78;1.88;;;12.90;79.90;;;;;;2092868;28;20028;-73
2023/06/04 02:52:44;;;;;;;3.15;1.50;;;12.90;79.80;;;;;;2090153;28;20035;-73
2023/06/04 02:53:45;;;;;;;2.28;1.40;;;12.90;80.50;;;;;;2091855;28;20035;-72
2023/06/04 02:54:46;;;;;;;3.13;1.88;;;12.90;79.50;;;;;;2091730;28;20125;-72
2023/06/04 02:55:46;;;;;;;1.83;1.45;;;12.90;80.10;;;;;;2090954;28;20086;-72
2023/06/04 02:56:48;;;;;;;2.00;1.80;;;12.90;79.90;;;;;;2091783;28;20093;-72
2023/06/04 02:57:51;;;;;;;2.38;1.55;;;12.90;81.20;;;;;;2091164;28;20031;-73
2023/06/04 02:58:55;;;;;;;3.53;1.80;;;12.90;80.70;;;;;;2090866;28;20075;-72
2023/06/04 02:59:56;;;;;;;1.80;1.50;;;12.80;80.00;;;;;;2090871;28;20020;-72
2023/06/04 03:00:57;;;;;;;3.88;1.85;;;12.80;80.90;;;;;;2092532;28;20035;-72
2023/06/04 03:01:57;;;;;;;2.55;1.77;;;12.80;82.10;;;;;;2095144;28;20684;-72
2023/06/04 03:03:01;;;;;;;2.33;1.60;;;12.80;82.40;;;;;;2085693;28;20476;-74
2023/06/04 03:04:09;;;;;;;2.88;1.85;;;12.80;82.50;;;;;;2088835;28;20028;-75
2023/06/04 03:05:12;;;;;;;4.57;2.00;;;12.80;82.00;;;;;;2091983;28;20863;-74
2023/06/04 03:06:16;;;;;;;1.75;1.58;;;12.70;82.10;;;;;;2092246;28;20021;-74
2023/06/04 03:07:22;;;;;;;2.05;1.83;;;12.70;82.00;;;;;;2090340;28;20025;-74
2023/06/04 03:08:23;;;;;;;2.42;1.85;;;12.70;82.50;;;;;;2092272;28;21174;-74
2023/06/04 03:09:23;;;;;;;1.70;1.60;;;12.70;83.20;;;;;;2091751;28;20365;-74
2023/06/04 03:10:24;;;;;;;1.95;1.75;;;12.70;82.50;;;;;;2088582;28;20033;-74
2023/06/04 03:11:27;;;;;;;2.78;1.50;;;12.70;81.00;;;;;;2090035;28;20025;-74
2023/06/04 03:12:27;;;;;;;2.17;1.90;;;12.70;80.80;;;;;;2085307;28;20130;-74
2023/06/04 03:13:28;;;;;;;3.78;1.85;;;12.70;81.10;;;;;;2089543;28;20017;-73
2023/06/04 03:14:32;;;;;;;2.35;1.92;;;12.70;82.30;;;;;;2092598;28;20534;-73
2023/06/04 03:15:32;;;;;;;3.70;1.90;;;12.70;82.80;;;;;;2092652;28;20023;-74
2023/06/04 03:16:33;;;;;;;2.75;1.73;;;12.60;82.40;;;;;;2091607;28;20099;-74
2023/06/04 03:17:33;;;;;;;2.10;1.67;;;12.60;82.20;;;;;;2090378;28;20100;-74
2023/06/04 03:18:36;;;;;;;2.88;1.75;;;12.60;82.90;;;;;;2089421;28;20017;-74
2023/06/04 03:19:37;;;;;;;2.45;1.70;;;12.60;84.00;;;;;;2091729;28;20032;-74
2023/06/04 03:20:38;;;;;;;5.50;1.90;;;12.60;84.60;;;;;;2091151;28;20047;-73
2023/06/04 03:21:39;;;;;;;1.30;1.27;;;12.50;83.20;;;;;;2091292;28;20021;-74
2023/06/04 03:22:40;;;;;;;2.88;2.15;;;12.50;82.50;;;;;;2093484;28;20039;-74
2023/06/04 03:23:41;;;;;;;1.85;1.67;;;12.50;83.40;;;;;;2092012;28;20066;-74
2023/06/04 03:24:41;;;;;;;3.25;1.90;;;12.50;83.60;;;;;;2093782;28;20056;-74
2023/06/04 03:25:42;;;;;;;3.03;2.08;;;12.50;85.10;;;;;;2091809;28;20052;-74
2023/06/04 03:26:42;;;;;;;2.28;1.98;;;12.50;84.60;;;;;;2092200;28;20013;-74
2023/06/04 03:27:43;;;;;;;3.53;2.13;;;12.50;85.10;;;;;;2091755;28;20369;-74
2023/06/04 03:28:43;;;;;;;2.75;1.80;;;12.50;85.70;;;;;;2093091;28;20020;-73
2023/06/04 03:29:45;;;;;;;3.63;2.15;;;12.40;85.50;;;;;;2092071;28;20017;-74
2023/06/04 03:30:46;;;;;;;3.25;1.98;;;12.50;85.70;;;;;;2092788;28;20678;-74
2023/06/04 03:31:47;;;;;;;2.33;2.13;;;12.40;85.10;;;;;;2092249;28;20024;-73
2023/06/04 03:32:47;;;;;;;1.85;1.73;;;12.40;86.40;;;;;;2093402;28;20028;-73
2023/06/04 03:33:48;;;;;;;3.55;2.17;;;12.40;87.30;;;;;;2091391;28;20039;-74
2023/06/04 03:34:48;;;;;;;2.15;1.90;;;12.40;87.80;;;;;;2091348;28;20056;-74
2023/06/04 03:35:50;;;;;;;2.03;1.55;;;12.40;88.60;;;;;;2089868;28;20021;-73
2023/06/04 03:36:52;;;;;;;3.25;1.80;;;12.40;88.90;;;;;;2094799;28;20374;-73
2023/06/04 03:37:52;;;;;;;2.55;1.20;;;12.40;87.00;;;;;;2093649;28;20500;-74
2023/06/04 03:38:53;;;;;;;2.58;1.65;;;12.40;86.00;;;;;;2089988;28;20405;-74
2023/06/04 03:39:53;;;;;;;4.80;2.20;;;12.30;85.40;;;;;;2091588;28;20033;-73
2023/06/04 03:40:54;;;;;;;5.00;1.83;;;12.30;87.10;;;;;;2092000;28;20055;-74
2023/06/04 03:41:55;;;;;;;3.58;2.10;;;12.30;88.30;;;;;;2097514;28;20090;-73
2023/06/04 03:42:55;;;;;;;1.65;1.55;;;12.30;88.70;;;;;;2097590;28;20050;-74
2023/06/04 03:43:56;;;;;;;2.78;1.63;;;12.30;89.40;;;;;;2091158;28;20085;-73
2023/06/04 03:44:58;;;;;;;2.80;1.73;;;12.30;89.20;;;;;;2089634;28;20365;-74
2023/06/04 03:48:01;;;;;;;4.05;2.30;;;12.30;91.40;;;;;;2090776;28;20064;-73
2023/06/04 03:49:03;;;;;;;2.63;1.80;;;12.20;91.80;;;;;;2087278;28;20542;-73
2023/06/04 03:50:04;;;;;;;3.30;1.80;;;12.20;91.50;;;;;;2088391;28;20552;-73
2023/06/04 03:51:04;;;;;;;2.33;1.80;;;12.20;90.70;;;;;;2093657;28;20078;-73
2023/06/04 03:52:05;;;;;;;2.28;1.70;;;12.20;90.30;;;;;;2091684;28;20024;-74
2023/06/04 03:53:05;;;;;;;3.17;1.70;;;12.20;90.20;;;;;;2092364;28;20042;-74
2023/06/04 03:54:06;;;;;;;2.40;1.70;;;12.20;90.10;;;;;;2088292;28;20173;-74
2023/06/04 03:55:07;;;;;;;3.08;2.00;;;12.20;90.80;;;;;;2092328;28;20036;-74
2023/06/04 03:56:07;;;;;;;2.70;2.03;;;12.20;91.10;;;;;;2094309;28;20476;-74
2023/06/04 03:57:08;;;;;;;2.83;2.40;;;12.30;91.60;;;;;;2087256;28;20021;-74
2023/06/04 03:58:11;;;;;;;2.70;2.05;;;12.30;92.50;;;;;;2095191;28;20048;-73
2023/06/04 03:59:12;;;;;;;2.10;1.85;;;12.30;92.70;;;;;;2091085;28;20021;-73
2023/06/04 04:00:13;;;;;;;3.40;2.08;;;12.40;93.10;;;;;;2088998;28;20106;-73
2023/06/04 04:01:14;;;;;;;2.58;1.77;;;12.40;93.50;;;;;;2090813;28;20044;-73
2023/06/04 04:02:15;;;;;;;9.68;2.30;;;12.40;93.50;;;;;;2090846;28;20040;-73
2023/06/04 04:03:15;;;;;;;3.22;2.35;;;12.50;93.90;;;;;;2090430;28;20050;-74
2023/06/04 04:04:16;;;;;;;4.45;2.60;;;12.50;93.70;;;;;;2081205;28;20021;-74
2023/06/04 04:05:16;;;;;;;3.10;2.47;;;12.60;94.30;;;;;;2090664;28;20052;-73
2023/06/04 04:06:18;;;;;;;5.45;2.20;;;12.70;94.30;;;;;;2089628;28;20771;-74
2023/06/04 04:07:20;;;;;;;6.13;2.38;;;12.80;94.30;;;;;;2089800;28;20248;-74
2023/06/04 04:08:21;;;;;;;6.70;2.63;;;12.90;94.20;;;;;;2092638;28;20100;-74
2023/06/04 04:09:22;;;;;;;3.17;2.50;;;13.00;94.10;;;;;;2090074;28;20028;-73
2023/06/04 04:10:22;;;;;;;2.88;2.30;;;13.10;93.90;;;;;;2089727;28;20028;-73
2023/06/04 04:11:23;;;;;;;4.45;2.17;;;13.20;93.60;;;;;;2091811;28;20060;-74
2023/06/04 04:12:23;;;;;;;2.42;2.13;;;13.40;93.90;;;;;;2093153;28;20025;-74
2023/06/04 04:13:24;;;;;;;2.63;1.90;;;13.50;93.20;;;;;;2091170;28;20107;-74
2023/06/04 04:14:24;;;;;;;3.97;1.98;;;13.60;92.90;;;;;;2092362;28;20021;-74
2023/06/04 04:15:25;;;;;;;2.53;1.92;;;13.60;91.80;;;;;;2094588;28;20559;-74
2023/06/04 04:16:27;;;;;;;4.50;2.28;;;13.70;91.40;;;;;;2094046;28;20024;-74
2023/06/04 04:17:27;;;;;;;4.15;2.20;;;13.80;91.40;;;;;;2091454;28;20031;-74
2023/06/04 04:18:31;;;;;;;2.30;2.10;;;14.00;91.50;;;;;;2090119;28;20036;-74
2023/06/04 04:19:32;;;;;;;4.00;2.38;;;14.10;91.40;;;;;;2099158;28;20052;-74
2023/06/04 04:20:33;;;;;;;3.50;1.88;;;14.30;90.80;;;;;;2094876;28;20078;-74
2023/06/04 04:21:36;;;;;;;4.15;2.83;;;14.60;90.40;;;;;;2097749;28;20020;-74
2023/06/04 04:22:41;;;;;;;3.83;2.05;;;14.80;89.90;;;;;;2097713;28;20449;-74
2023/06/04 04:23:41;;;;;;;2.65;2.10;;;15.00;89.50;;;;;;2093792;28;20111;-74
2023/06/04 04:24:43;;;;;;;3.03;2.15;;;15.20;86.80;;;;;;2093219;28;20132;-74
2023/06/04 04:25:44;;;;;;;4.10;2.10;;;15.40;86.60;;;;;;2092418;28;20052;-74
2023/06/04 04:26:46;;;;;;;2.60;2.20;;;15.50;85.30;;;;;;2090080;28;20025;-74
2023/06/04 04:27:48;;;;;;;2.80;1.92;;;15.60;84.50;;;;;;2092967;28;20423;-74
2023/06/04 04:28:49;;;;;;;4.28;2.17;;;15.60;84.40;;;;;;2091347;28;20021;-74
2023/06/04 04:29:50;;;;;;;3.95;2.10;;;15.60;83.60;;;;;;2097809;28;20028;-73
2023/06/04 04:30:51;;;;;;;2.08;1.83;;;15.50;84.60;;;;;;2092855;28;20100;-74
2023/06/04 04:31:52;;;;;;;2.03;1.92;;;15.50;85.50;;;;;;2094057;28;20492;-74
2023/06/04 04:32:52;;;;;;;2.28;1.77;;;15.40;86.10;;;;;;2094571;28;20568;-74
2023/06/04 04:33:55;;;;;;;2.72;2.00;;;15.40;87.00;;;;;;2090899;28;20991;-74
2023/06/04 04:34:57;;;;;;;3.65;1.70;;;15.40;87.50;;;;;;2091078;28;20037;-74
2023/06/04 04:35:59;;;;;;;3.22;2.10;;;15.40;87.60;;;;;;2088756;28;20033;-73
2023/06/04 04:36:59;;;;;;;3.85;2.15;;;15.40;87.60;;;;;;2090134;28;20031;-74
2023/06/04 04:38:03;;;;;;;3.38;2.13;;;15.40;87.60;;;;;;2091986;28;20028;-73
2023/06/04 04:39:04;;;;;;;2.30;1.90;;;15.40;88.00;;;;;;2088867;28;20053;-74
2023/06/04 04:40:12;;;;;;;3.53;1.90;;;15.40;88.30;;;;;;2089998;28;20032;-74
2023/06/04 04:41:12;;;;;;;2.10;1.77;;;15.40;88.80;;;;;;2089990;28;20117;-74
2023/06/04 04:42:13;;;;;;;1.90;1.80;;;15.50;88.90;;;;;;2091183;28;20078;-74
2023/06/04 04:43:14;;;;;;;3.53;2.22;;;15.60;88.20;;;;;;2092877;28;20108;-74
2023/06/04 04:44:14;;;;;;;2.83;2.03;;;15.60;87.50;;;;;;2091644;28;20091;-74
2023/06/04 04:45:17;;;;;;;2.90;1.60;;;15.60;87.50;;;;;;2092041;28;20024;-74
2023/06/04 04:46:17;;;;;;;3.03;1.73;;;15.70;87.40;;;;;;2090239;28;20021;-74
2023/06/04 04:47:18;;;;;;;1.67;1.58;;;15.70;87.80;;;;;;2090512;28;20052;-73
2023/06/04 04:48:18;;;;;;;3.50;1.88;;;15.70;88.00;;;;;;2093353;28;20028;-74
2023/06/04 04:49:19;;;;;;;5.88;2.22;;;15.80;87.40;;;;;;2094999;28;20017;-74
2023/06/04 04:50:20;;;;;;;2.83;2.10;;;15.80;87.50;;;;;;2091252;28;20044;-74
2023/06/04 04:51:21;;;;;;;3.03;1.98;;;15.90;87.00;;;;;;2092880;28;20074;-74
2023/06/04 04:52:22;;;;;;;2.63;1.95;;;16.00;86.90;;;;;;2093868;28;20031;-74
2023/06/04 04:53:23;;;;;;;2.97;1.95;;;16.00;87.50;;;;;;2094890;28;20020;-74
2023/06/04 04:54:23;;;;;;;3.55;2.05;;;16.10;87.00;;;;;;2097043;28;20139;-74
2023/06/04 04:55:24;;;;;;;2.28;1.90;;;16.10;85.70;;;;;;2093720;28;20136;-74
2023/06/04 04:56:26;;;;;;;2.17;1.92;;;16.20;86.00;;;;;;2095251;28;20087;-74
2023/06/04 04:57:26;;;;;;;5.38;1.90;;;16.20;85.90;;;;;;2090261;28;20024;-74
2023/06/04 04:58:27;;;;;;;2.85;2.10;;;16.30;85.80;;;;;;2093904;28;20121;-74
2023/06/04 04:59:27;;;;;;;3.22;2.45;;;16.40;85.30;;;;;;2092504;28;20025;-74
2023/06/04 05:00:29;;;;;;;3.83;1.75;;;16.40;84.40;;;;;;2092246;28;20119;-74
2023/06/04 05:01:30;;;;;;;4.07;2.10;;;16.50;84.60;;;;;;2093958;28;20056;-74
2023/06/04 05:02:30;;;;;;;2.30;2.00;;;16.50;83.50;;;;;;2092925;28;20017;-74
2023/06/04 05:03:31;;;;;;;2.38;1.83;;;16.50;82.90;;;;;;2092456;28;20509;-74
2023/06/04 05:04:32;;;;;;;2.65;2.10;;;16.60;82.90;;;;;;2092827;28;20218;-74
2023/06/04 05:05:33;;;;;;;2.83;2.30;;;16.60;82.00;;;;;;2092761;28;20017;-74
2023/06/04 05:06:33;;;;;;;3.15;2.17;;;16.70;81.40;;;;;;2092254;28;20456;-74
2023/06/04 05:07:34;;;;;;;2.80;1.92;;;16.70;81.00;;;;;;2093954;28;20346;-74
2023/06/04 05:08:35;;;;;;;3.13;2.40;;;16.80;81.10;;;;;;2091873;28;20385;-74
2023/06/04 05:09:35;;;;;;;2.75;1.90;;;16.80;81.40;;;;;;2091296;28;20599;-74
2023/06/04 05:10:36;;;;;;;3.20;2.17;;;16.90;80.10;;;;;;2091383;28;20036;-74
2023/06/04 05:11:36;;;;;;;5.38;1.88;;;16.90;79.90;;;;;;2092657;28;20029;-74
2023/06/04 05:12:37;;;;;;;3.78;2.08;;;17.00;80.30;;;;;;2092608;28;20079;-74
2023/06/04 05:13:37;;;;;;;2.35;2.15;;;17.10;79.40;;;;;;2092390;28;20107;-74
2023/06/04 05:14:38;;;;;;;3.92;2.40;;;17.10;78.70;;;;;;2091969;28;20036;-74
2023/06/04 05:15:42;;;;;;;3.22;2.15;;;17.10;79.10;;;;;;2093031;28;20021;-74
2023/06/04 05:16:44;;;;;;;7.78;2.70;;;17.20;78.60;;;;;;2091894;28;20487;-74
2023/06/04 05:17:46;;;;;;;3.33;1.98;;;17.30;78.80;;;;;;2094063;28;20035;-74
2023/06/04 05:18:47;;;;;;;3.47;2.00;;;17.30;77.60;;;;;;2092988;28;20023;-74
2023/06/04 05:19:47;;;;;;;3.50;1.83;;;17.40;77.40;;;;;;2092777;28;20032;-74
2023/06/04 05:20:48;;;;;;;2.95;1.92;;;17.40;77.20;;;;;;2093398;28;20131;-74
2023/06/04 05:21:49;;;;;;;4.35;2.60;;;17.50;77.00;;;;;;2084558;28;20112;-74
2023/06/04 05:22:49;;;;;;;3.88;2.28;;;17.50;76.60;;;;;;2095762;28;20033;-74